createdAt,value
2023-05-10T00:00:56.666Z,1.00
2023-05-10T00:03:26.012Z,1.07
2023-05-10T00:05:55.407Z,1.00
2023-05-10T00:08:26.763Z,0.90
2023-05-10T00:10:56.506Z,1.30
2023-05-10T00:13:23.532Z,0.97
2023-05-10T00:15:52.654Z,1.00
2023-05-10T00:18:20.315Z,1.10
2023-05-10T00:20:50.024Z,0.83
2023-05-10T00:23:17.005Z,0.90
2023-05-10T00:25:46.278Z,0.80
2023-05-10T00:28:13.167Z,0.93
2023-05-10T00:30:39.969Z,1.10
2023-05-10T00:33:12.750Z,0.87
2023-05-10T00:35:41.918Z,1.10
2023-05-10T00:38:09.627Z,0.90
2023-05-10T00:40:41.431Z,0.90
2023-05-10T00:43:17.325Z,1.03
2023-05-10T00:45:50.289Z,0.80
2023-05-10T00:48:22.721Z,0.70
2023-05-10T00:50:49.682Z,1.10
2023-05-10T00:53:19.693Z,0.80
2023-05-10T00:55:49.336Z,0.73
2023-05-10T00:58:20.936Z,1.00
2023-05-10T01:00:47.918Z,1.10
2023-05-10T01:03:15.516Z,0.83
2023-05-10T01:05:44.897Z,0.90
2023-05-10T01:08:14.424Z,0.87
2023-05-10T01:10:46.686Z,0.80
2023-05-10T01:13:24.628Z,0.80
2023-05-10T01:15:51.530Z,0.80
2023-05-10T01:18:23.337Z,0.70
2023-05-10T01:21:05.543Z,1.00
2023-05-10T01:24:09.624Z,0.80
2023-05-10T01:26:51.853Z,0.80
2023-05-10T01:29:34.399Z,0.60
2023-05-10T01:32:06.630Z,0.80
2023-05-10T01:35:00.910Z,0.70
2023-05-10T01:37:39.911Z,0.80
2023-05-10T01:40:26.703Z,0.70
2023-05-10T01:42:58.096Z,0.80
2023-05-10T01:45:55.661Z,0.70
2023-05-10T01:48:24.265Z,0.70
2023-05-10T01:50:52.812Z,0.67
2023-05-10T01:53:21.650Z,0.80
2023-05-10T01:55:51.997Z,0.70
2023-05-10T01:58:24.004Z,0.70
2023-05-10T02:00:53.092Z,0.60
2023-05-10T02:03:25.573Z,0.63
2023-05-10T02:05:54.296Z,0.63
2023-05-10T02:08:25.593Z,0.50
2023-05-10T02:10:58.109Z,0.70
2023-05-10T02:13:29.547Z,0.60
2023-05-10T02:15:59.285Z,0.80
2023-05-10T02:18:31.291Z,0.83
2023-05-10T02:21:05.129Z,0.57
2023-05-10T02:23:36.173Z,0.50
2023-05-10T02:26:05.096Z,0.90
2023-05-10T02:28:33.590Z,0.73
2023-05-10T02:31:06.442Z,0.73
2023-05-10T02:33:42.108Z,0.50
2023-05-10T02:36:13.613Z,0.60
2023-05-10T02:38:42.201Z,0.70
2023-05-10T02:41:11.505Z,0.80
2023-05-10T02:43:41.004Z,0.40
2023-05-10T02:46:07.907Z,0.80
2023-05-10T02:48:39.440Z,0.57
2023-05-10T02:51:09.445Z,0.70
2023-05-10T02:53:44.540Z,0.60
2023-05-10T02:56:28.842Z,0.60
2023-05-10T02:58:56.742Z,0.60
2023-05-10T03:01:26.427Z,0.57
2023-05-10T03:04:00.665Z,0.67
2023-05-10T03:06:35.692Z,0.60
2023-05-10T03:09:05.292Z,1.10
2023-05-10T03:11:38.132Z,0.93
2023-05-10T03:14:31.128Z,0.50
2023-05-10T03:17:05.409Z,0.63
2023-05-10T03:19:58.419Z,0.70
2023-05-10T03:22:35.590Z,0.77
2023-05-10T03:25:11.983Z,0.70
2023-05-10T03:27:45.306Z,0.70
2023-05-10T03:30:15.792Z,0.90
2023-05-10T03:32:47.206Z,0.77
2023-05-10T03:35:21.652Z,1.00
2023-05-10T03:37:48.637Z,0.77
2023-05-10T03:40:15.771Z,0.60
2023-05-10T03:42:46.510Z,0.80
2023-05-10T03:45:13.273Z,0.80
2023-05-10T03:47:42.501Z,0.70
2023-05-10T03:50:12.281Z,0.73
2023-05-10T03:52:40.314Z,0.80
2023-05-10T03:55:10.211Z,0.77
2023-05-10T03:57:37.113Z,0.80
2023-05-10T04:00:07.584Z,0.70
2023-05-10T04:02:41.615Z,0.60
2023-05-10T04:05:12.231Z,0.83
2023-05-10T04:07:45.443Z,0.97
2023-05-10T04:10:12.829Z,0.70
2023-05-10T04:12:39.708Z,0.87
2023-05-10T04:15:07.712Z,0.73
2023-05-10T04:17:36.785Z,0.63
2023-05-10T04:20:06.142Z,0.60
2023-05-10T04:22:35.848Z,0.73
2023-05-10T04:25:02.666Z,0.60
2023-05-10T04:27:32.221Z,0.50
2023-05-10T04:29:59.132Z,1.00
2023-05-10T04:32:29.287Z,0.70
2023-05-10T04:34:56.228Z,1.00
2023-05-10T04:37:24.128Z,1.00
2023-05-10T04:39:53.226Z,0.80
2023-05-10T04:42:22.120Z,0.90
2023-05-10T04:44:54.159Z,0.67
2023-05-10T04:47:21.075Z,0.90
2023-05-10T04:49:50.267Z,1.07
2023-05-10T04:52:20.079Z,0.80
2023-05-10T04:54:49.175Z,1.00
2023-05-10T04:57:18.274Z,1.13
2023-05-10T04:59:50.688Z,0.70
2023-05-10T05:02:19.953Z,0.80
2023-05-10T05:04:49.240Z,0.87
2023-05-10T05:07:18.382Z,0.80
2023-05-10T05:09:48.238Z,1.00
2023-05-10T05:12:17.259Z,0.70
2023-05-10T05:14:46.519Z,0.70
2023-05-10T05:17:16.393Z,0.70
2023-05-10T05:19:45.420Z,0.70
2023-05-10T05:22:12.223Z,0.70
2023-05-10T05:24:39.403Z,0.57
2023-05-10T05:27:07.074Z,0.67
2023-05-10T05:29:36.711Z,0.90
2023-05-10T05:32:03.562Z,0.90
2023-05-10T05:34:32.881Z,0.50
2023-05-10T05:37:04.182Z,0.60
2023-05-10T05:39:33.213Z,0.50
2023-05-10T05:42:00.170Z,0.83
2023-05-10T05:44:30.020Z,0.50
2023-05-10T05:46:59.169Z,0.67
2023-05-10T05:49:30.724Z,0.70
2023-05-10T05:52:05.163Z,0.50
2023-05-10T05:54:32.724Z,0.57
2023-05-10T05:57:02.495Z,0.80
2023-05-10T05:59:34.217Z,0.70
2023-05-10T06:02:05.670Z,1.03
2023-05-10T06:04:32.598Z,0.70
2023-05-10T06:06:59.846Z,0.63
2023-05-10T06:09:29.216Z,0.80
2023-05-10T06:12:00.646Z,0.70
2023-05-10T06:14:27.441Z,0.60
2023-05-10T06:16:56.574Z,0.83
2023-05-10T06:19:25.610Z,1.10
2023-05-10T06:21:57.217Z,1.00
2023-05-10T06:24:23.987Z,0.87
2023-05-10T06:26:53.472Z,0.67
2023-05-10T06:29:20.357Z,0.93
2023-05-10T06:31:51.477Z,1.00
2023-05-10T06:34:25.360Z,1.03
2023-05-10T06:36:54.688Z,1.00
2023-05-10T06:39:26.370Z,0.80
2023-05-10T06:41:57.782Z,0.73
2023-05-10T06:44:37.458Z,0.90
2023-05-10T06:47:04.321Z,0.80
2023-05-10T06:49:31.132Z,0.80
2023-05-10T06:52:02.504Z,0.67
2023-05-10T06:54:31.779Z,0.80
2023-05-10T06:57:02.548Z,1.10
2023-05-10T06:59:35.440Z,0.80
2023-05-10T07:02:11.932Z,0.90
2023-05-10T07:04:38.829Z,0.97
2023-05-10T07:07:06.220Z,1.13
2023-05-10T07:09:37.585Z,1.20
2023-05-10T07:12:08.034Z,1.00
2023-05-10T07:14:36.426Z,0.90
2023-05-10T07:17:03.175Z,0.97
2023-05-10T07:19:33.771Z,1.00
2023-05-10T07:22:05.916Z,0.80
2023-05-10T07:24:37.997Z,0.90
2023-05-10T07:27:10.203Z,0.93
2023-05-10T07:29:39.668Z,0.87
2023-05-10T07:32:09.364Z,0.80
2023-05-10T07:34:38.567Z,1.00
2023-05-10T07:37:08.599Z,0.83
2023-05-10T07:39:35.394Z,1.00
2023-05-10T07:42:06.932Z,0.70
2023-05-10T07:44:36.814Z,0.90
2023-05-10T07:47:05.976Z,0.70
2023-05-10T07:49:34.974Z,0.80
2023-05-10T07:52:01.814Z,0.80
2023-05-10T07:54:28.962Z,0.60
2023-05-10T07:56:58.408Z,1.27
2023-05-10T07:59:27.673Z,0.80
2023-05-10T08:01:57.699Z,0.87
2023-05-10T08:04:24.592Z,1.20
2023-05-10T08:06:53.758Z,1.07
2023-05-10T08:09:25.481Z,1.03
2023-05-10T08:12:02.142Z,1.37
2023-05-10T08:14:32.976Z,1.10
2023-05-10T08:17:04.916Z,1.10
2023-05-10T08:19:36.711Z,1.17
2023-05-10T08:22:03.594Z,1.10
2023-05-10T08:24:39.568Z,1.00
2023-05-10T08:27:10.808Z,0.90
2023-05-10T08:29:50.164Z,0.80
2023-05-10T08:32:20.352Z,1.07
2023-05-10T08:34:49.473Z,1.03
2023-05-10T08:37:19.228Z,0.60
2023-05-10T08:39:49.017Z,0.73
2023-05-10T08:42:23.797Z,0.70
2023-05-10T08:44:56.913Z,0.70
2023-05-10T08:47:26.541Z,0.90
2023-05-10T08:49:56.473Z,0.90
2023-05-10T08:52:33.241Z,0.90
2023-05-10T08:55:02.614Z,0.80
2023-05-10T08:57:34.254Z,0.77
2023-05-10T09:00:06.836Z,0.87
2023-05-10T09:02:40.480Z,0.87
2023-05-10T09:05:14.401Z,0.80
2023-05-10T09:07:43.741Z,0.90
2023-05-10T09:10:11.977Z,0.67
2023-05-10T09:12:39.636Z,0.70
2023-05-10T09:15:10.603Z,0.90
2023-05-10T09:17:38.347Z,0.87
2023-05-10T09:20:10.973Z,0.97
2023-05-10T09:22:38.868Z,0.80
2023-05-10T09:25:12.486Z,1.00
2023-05-10T09:27:41.047Z,0.73
2023-05-10T09:30:11.680Z,0.70
2023-05-10T09:32:42.618Z,0.80
2023-05-10T09:35:19.385Z,0.80
2023-05-10T09:37:51.630Z,0.60
2023-05-10T09:40:26.208Z,0.70
2023-05-10T09:43:11.999Z,0.90
2023-05-10T09:45:47.320Z,0.90
2023-05-10T09:48:16.738Z,0.77
2023-05-10T09:50:43.503Z,0.80
2023-05-10T09:53:12.561Z,0.97
2023-05-10T09:55:47.530Z,0.90
2023-05-10T09:58:17.009Z,0.80
2023-05-10T10:00:45.838Z,0.67
2023-05-10T10:03:22.509Z,0.90
2023-05-10T10:05:54.409Z,1.20
2023-05-10T10:08:26.268Z,1.07
2023-05-10T10:10:57.844Z,0.90
2023-05-10T10:13:27.231Z,0.70
2023-05-10T10:15:55.897Z,0.80
2023-05-10T10:18:28.207Z,0.90
2023-05-10T10:21:00.591Z,0.70
2023-05-10T10:23:33.475Z,1.40
2023-05-10T10:26:01.273Z,2.70
2023-05-10T10:28:36.841Z,1.63
2023-05-10T10:31:22.346Z,1.30
2023-05-10T10:34:05.163Z,1.53
2023-05-10T10:36:34.389Z,0.90
2023-05-10T10:39:14.783Z,0.83
2023-05-10T10:42:03.890Z,0.90
2023-05-10T10:44:34.913Z,1.50
2023-05-10T10:47:19.941Z,0.90
2023-05-10T10:49:53.986Z,1.03
2023-05-10T10:52:36.630Z,0.83
2023-05-10T10:55:26.181Z,1.13
2023-05-10T10:58:05.582Z,0.80
2023-05-10T11:00:42.013Z,0.80
2023-05-10T11:03:19.868Z,1.20
2023-05-10T11:05:54.193Z,1.40
2023-05-10T11:08:42.309Z,1.03
2023-05-10T11:11:15.253Z,1.07
2023-05-10T11:13:48.392Z,1.43
2023-05-10T11:16:28.016Z,0.90
2023-05-10T11:18:55.178Z,1.00
2023-05-10T11:21:27.597Z,1.17
2023-05-10T11:24:01.273Z,1.63
2023-05-10T11:26:40.235Z,1.53
2023-05-10T11:29:07.362Z,1.27
2023-05-10T11:31:42.792Z,1.13
2023-05-10T11:34:15.579Z,1.10
2023-05-10T11:36:53.041Z,0.97
2023-05-10T11:39:29.955Z,1.27
2023-05-10T11:41:57.743Z,1.10
2023-05-10T11:44:35.933Z,1.10
2023-05-10T11:47:11.153Z,0.83
2023-05-10T11:49:46.418Z,0.83
2023-05-10T11:52:22.142Z,1.10
2023-05-10T11:54:55.264Z,0.60
2023-05-10T11:57:28.744Z,1.07
2023-05-10T12:00:01.282Z,0.90
2023-05-10T12:02:30.592Z,0.93
2023-05-10T12:05:00.119Z,1.20
2023-05-10T12:07:31.940Z,1.20
2023-05-10T12:10:11.380Z,1.17
2023-05-10T12:12:56.246Z,1.10
2023-05-10T12:15:25.495Z,1.40
2023-05-10T12:17:54.571Z,1.43
2023-05-10T12:20:23.341Z,1.40
2023-05-10T12:22:55.221Z,1.23
2023-05-10T12:25:38.740Z,1.50
2023-05-10T12:28:12.076Z,0.93
2023-05-10T12:30:39.866Z,1.27
2023-05-10T12:33:17.872Z,0.90
2023-05-10T12:35:52.381Z,1.70
2023-05-10T12:38:34.680Z,1.37
2023-05-10T12:41:13.685Z,1.80
2023-05-10T12:43:43.900Z,2.03
2023-05-10T12:46:17.401Z,1.80
2023-05-10T12:48:55.262Z,1.80
2023-05-10T12:51:35.064Z,1.50
2023-05-10T12:54:04.942Z,1.53
2023-05-10T12:56:34.078Z,1.10
2023-05-10T12:59:08.089Z,1.40
2023-05-10T13:01:37.295Z,1.13
2023-05-10T13:04:08.950Z,0.90
2023-05-10T13:06:36.303Z,0.60
2023-05-10T13:09:08.100Z,0.73
2023-05-10T13:11:40.057Z,0.60
2023-05-10T13:14:06.991Z,0.80
2023-05-10T13:16:38.706Z,0.70
2023-05-10T13:19:05.615Z,0.93
2023-05-10T13:21:35.580Z,0.60
2023-05-10T13:24:04.654Z,1.03
2023-05-10T13:26:33.830Z,0.87
2023-05-10T13:29:02.915Z,0.73
2023-05-10T13:31:32.169Z,0.87
2023-05-10T13:34:06.410Z,0.90
2023-05-10T13:36:40.103Z,0.73
2023-05-10T13:39:09.770Z,1.07
2023-05-10T13:41:36.703Z,0.87
2023-05-10T13:44:08.250Z,1.33
2023-05-10T13:46:40.350Z,0.87
2023-05-10T13:49:09.462Z,1.30
2023-05-10T13:51:41.691Z,1.00
2023-05-10T13:54:13.902Z,1.40
2023-05-10T13:56:43.652Z,1.27
2023-05-10T13:59:13.003Z,1.50
2023-05-10T14:01:39.826Z,0.90
2023-05-10T14:04:07.457Z,1.10
2023-05-10T14:06:37.616Z,1.60
2023-05-10T14:09:04.732Z,1.67
2023-05-10T14:11:36.037Z,1.27
2023-05-10T14:14:02.820Z,0.93
2023-05-10T14:16:32.419Z,1.37
2023-05-10T14:18:59.271Z,1.43
2023-05-10T14:21:29.994Z,1.80
2023-05-10T14:24:03.596Z,1.53
2023-05-10T14:26:35.817Z,1.33
2023-05-10T14:29:09.887Z,1.30
2023-05-10T14:31:37.505Z,1.20
2023-05-10T14:34:06.867Z,1.83
2023-05-10T14:36:36.048Z,1.73
2023-05-10T14:39:11.176Z,1.50
2023-05-10T14:41:38.874Z,1.63
2023-05-10T14:44:08.238Z,1.03
2023-05-10T14:46:37.585Z,1.20
2023-05-10T14:49:04.493Z,1.00
2023-05-10T14:51:38.030Z,1.13
2023-05-10T14:54:05.018Z,1.20
2023-05-10T14:56:33.101Z,1.80
2023-05-10T14:59:05.288Z,1.20
2023-05-10T15:01:38.441Z,1.40
2023-05-10T15:04:14.621Z,1.10
2023-05-10T15:06:46.713Z,1.10
2023-05-10T15:09:18.370Z,1.20
2023-05-10T15:11:47.779Z,0.90
2023-05-10T15:14:19.898Z,1.10
2023-05-10T15:16:49.797Z,1.50
2023-05-10T15:19:18.825Z,1.27
2023-05-10T15:21:46.184Z,1.10
2023-05-10T15:24:17.899Z,0.90
2023-05-10T15:26:46.993Z,1.10
2023-05-10T15:29:20.786Z,1.10
2023-05-10T15:31:52.837Z,1.13
2023-05-10T15:34:29.736Z,1.10
2023-05-10T15:36:56.592Z,1.53
2023-05-10T15:39:23.414Z,1.13
2023-05-10T15:41:53.239Z,1.57
2023-05-10T15:44:20.144Z,1.00
2023-05-10T15:46:47.099Z,1.10
2023-05-10T15:49:16.545Z,1.20
2023-05-10T15:51:46.336Z,1.00
2023-05-10T15:54:13.134Z,1.20
2023-05-10T15:56:42.453Z,1.70
2023-05-10T15:59:13.901Z,1.10
2023-05-10T16:01:40.757Z,1.40
2023-05-10T16:04:14.607Z,1.73
2023-05-10T16:06:43.957Z,1.50
2023-05-10T16:09:12.992Z,1.70
2023-05-10T16:11:42.226Z,1.30
2023-05-10T16:14:12.088Z,0.90
2023-05-10T16:16:49.112Z,1.30
2023-05-10T16:19:18.682Z,1.37
2023-05-10T16:21:50.620Z,1.30
2023-05-10T16:24:17.506Z,1.00
2023-05-10T16:26:48.980Z,1.10
2023-05-10T16:29:18.226Z,0.73
2023-05-10T16:31:49.869Z,0.70
2023-05-10T16:34:16.906Z,0.90
2023-05-10T16:36:45.922Z,1.10
2023-05-10T16:39:15.842Z,0.90
2023-05-10T16:41:42.747Z,1.03
2023-05-10T16:44:12.524Z,0.90
2023-05-10T16:46:41.634Z,1.00
2023-05-10T16:49:09.035Z,1.00
2023-05-10T16:51:38.324Z,1.10
2023-05-10T16:54:07.337Z,1.07
2023-05-10T16:56:39.358Z,1.27
2023-05-10T16:59:08.742Z,0.90
2023-05-10T17:01:37.833Z,0.77
2023-05-10T17:04:11.750Z,1.00
2023-05-10T17:06:43.785Z,1.17
2023-05-10T17:09:10.709Z,0.80
2023-05-10T17:11:42.787Z,1.10
2023-05-10T17:14:19.175Z,1.07
2023-05-10T17:16:48.653Z,1.60
2023-05-10T17:19:18.205Z,1.13
2023-05-10T17:21:47.728Z,1.40
2023-05-10T17:24:22.138Z,1.30
2023-05-10T17:26:51.395Z,1.10
2023-05-10T17:29:20.429Z,1.57
2023-05-10T17:31:51.889Z,1.00
2023-05-10T17:34:21.920Z,1.10
2023-05-10T17:36:55.903Z,0.97
2023-05-10T17:39:22.778Z,1.07
2023-05-10T17:41:49.633Z,1.10
2023-05-10T17:44:16.488Z,0.80
2023-05-10T17:46:45.539Z,1.27
2023-05-10T17:49:12.427Z,1.40
2023-05-10T17:51:44.190Z,1.13
2023-05-10T17:54:15.788Z,1.33
2023-05-10T17:56:44.779Z,2.47
2023-05-10T17:59:11.634Z,1.27
2023-05-10T18:01:38.400Z,1.20
2023-05-10T18:04:10.078Z,1.53
2023-05-10T18:06:40.459Z,1.30
2023-05-10T18:09:12.099Z,1.50
2023-05-10T18:11:41.904Z,1.50
2023-05-10T18:14:13.434Z,1.23
2023-05-10T18:16:43.312Z,0.97
2023-05-10T18:19:10.189Z,1.77
2023-05-10T18:21:39.197Z,1.50
2023-05-10T18:24:06.356Z,1.77
2023-05-10T18:26:35.529Z,1.37
2023-05-10T18:29:04.576Z,1.43
2023-05-10T18:31:33.705Z,2.00
2023-05-10T18:34:07.573Z,1.87
2023-05-10T18:36:36.598Z,1.77
2023-05-10T18:39:08.629Z,1.50
2023-05-10T18:41:41.071Z,1.60
2023-05-10T18:44:08.332Z,2.10
2023-05-10T18:46:38.363Z,1.93
2023-05-10T18:49:10.115Z,1.30
2023-05-10T18:51:44.491Z,1.20
2023-05-10T18:54:17.010Z,1.70
2023-05-10T18:56:48.919Z,1.10
2023-05-10T18:59:20.559Z,1.37
2023-05-10T19:01:51.274Z,1.17
2023-05-10T19:04:25.257Z,1.47
2023-05-10T19:06:52.191Z,1.43
2023-05-10T19:09:24.353Z,1.07
2023-05-10T19:11:53.913Z,1.47
2023-05-10T19:14:23.124Z,1.87
2023-05-10T19:16:53.681Z,1.60
2023-05-10T19:19:27.808Z,1.30
2023-05-10T19:21:56.779Z,1.80
2023-05-10T19:24:29.226Z,1.50
2023-05-10T19:26:58.327Z,1.70
2023-05-10T19:29:27.704Z,1.57
2023-05-10T19:32:00.688Z,1.60
2023-05-10T19:34:32.564Z,1.50
2023-05-10T19:37:01.651Z,1.90
2023-05-10T19:39:32.721Z,1.47
2023-05-10T19:42:07.429Z,1.50
2023-05-10T19:44:36.642Z,1.30
2023-05-10T19:47:05.356Z,1.57
2023-05-10T19:49:39.677Z,1.93
2023-05-10T19:52:10.734Z,1.00
2023-05-10T19:54:39.798Z,1.77
2023-05-10T19:57:12.140Z,1.43
2023-05-10T19:59:43.242Z,1.70
2023-05-10T20:02:12.427Z,1.70
2023-05-10T20:04:39.319Z,1.57
2023-05-10T20:07:06.091Z,1.30
2023-05-10T20:09:37.692Z,1.40
2023-05-10T20:12:04.644Z,1.73
2023-05-10T20:14:38.665Z,1.90
2023-05-10T20:17:12.816Z,2.00
2023-05-10T20:19:42.071Z,1.80
2023-05-10T20:22:09.604Z,1.73
2023-05-10T20:24:44.000Z,1.90
2023-05-10T20:27:10.763Z,1.53
2023-05-10T20:29:37.580Z,1.63
2023-05-10T20:32:09.149Z,1.40
2023-05-10T20:34:35.969Z,1.50
2023-05-10T20:37:04.839Z,1.80
2023-05-10T20:39:38.786Z,1.40
2023-05-10T20:42:08.565Z,1.70
2023-05-10T20:44:39.624Z,2.00
2023-05-10T20:47:06.835Z,1.80
2023-05-10T20:49:38.082Z,1.70
2023-05-10T20:52:12.542Z,1.60
2023-05-10T20:54:44.242Z,1.57
2023-05-10T20:57:14.652Z,1.67
2023-05-10T20:59:44.453Z,1.57
2023-05-10T21:02:16.816Z,1.80
2023-05-10T21:04:50.966Z,1.50
2023-05-10T21:07:18.048Z,1.43
2023-05-10T21:09:47.073Z,1.70
2023-05-10T21:12:13.826Z,1.60
2023-05-10T21:14:47.178Z,1.80
2023-05-10T21:17:18.779Z,1.50
2023-05-10T21:19:49.234Z,1.37
2023-05-10T21:22:20.874Z,1.60
2023-05-10T21:24:47.861Z,1.23
2023-05-10T21:27:17.076Z,1.60
2023-05-10T21:29:51.097Z,1.53
2023-05-10T21:32:17.970Z,1.20
2023-05-10T21:34:47.185Z,1.40
2023-05-10T21:37:18.297Z,2.10
2023-05-10T21:39:45.111Z,1.43
2023-05-10T21:42:12.043Z,1.43
2023-05-10T21:44:41.092Z,0.80
2023-05-10T21:47:12.748Z,1.40
2023-05-10T21:49:44.396Z,1.50
2023-05-10T21:52:13.491Z,1.67
2023-05-10T21:54:40.484Z,1.50
2023-05-10T21:57:09.787Z,1.37
2023-05-10T21:59:38.927Z,1.30
2023-05-10T22:02:08.387Z,1.00
2023-05-10T22:04:37.707Z,2.30
2023-05-10T22:07:06.840Z,1.60
2023-05-10T22:09:35.673Z,1.60
2023-05-10T22:12:02.526Z,1.30
2023-05-10T22:14:31.786Z,0.87
2023-05-10T22:17:03.961Z,1.10
2023-05-10T22:19:33.022Z,0.70
2023-05-10T22:22:07.102Z,1.37
2023-05-10T22:24:37.012Z,1.00
2023-05-10T22:27:06.219Z,1.70
2023-05-10T22:29:37.757Z,1.33
2023-05-10T22:32:07.166Z,1.07
2023-05-10T22:34:43.300Z,1.30
2023-05-10T22:37:15.005Z,1.37
2023-05-10T22:39:44.069Z,1.17
2023-05-10T22:42:18.245Z,1.00
2023-05-10T22:44:49.829Z,1.07
2023-05-10T22:47:23.986Z,1.00
2023-05-10T22:49:56.331Z,1.00
2023-05-10T22:52:26.141Z,1.20
2023-05-10T22:55:00.347Z,0.80
2023-05-10T22:57:29.783Z,1.07
2023-05-10T22:59:56.696Z,1.00
2023-05-10T23:02:23.642Z,1.33
2023-05-10T23:04:55.403Z,1.20
2023-05-10T23:07:24.549Z,1.10
2023-05-10T23:09:58.623Z,1.10
2023-05-10T23:12:25.458Z,1.60
2023-05-10T23:14:52.365Z,1.33
2023-05-10T23:17:26.553Z,1.33
2023-05-10T23:19:58.004Z,1.40
2023-05-10T23:22:29.622Z,1.20
2023-05-10T23:25:01.305Z,0.80
2023-05-10T23:27:31.060Z,0.70
2023-05-10T23:30:05.260Z,1.40
2023-05-10T23:32:36.825Z,1.10
2023-05-10T23:35:03.878Z,1.00
2023-05-10T23:37:32.950Z,1.20
2023-05-10T23:39:59.760Z,1.10
2023-05-10T23:42:32.384Z,1.40
2023-05-10T23:45:01.637Z,1.10
2023-05-10T23:47:28.436Z,1.03
2023-05-10T23:49:58.322Z,1.10
2023-05-10T23:52:27.374Z,1.20
2023-05-10T23:54:54.394Z,1.20
2023-05-10T23:57:23.413Z,2.30
2023-05-10T23:59:53.192Z,1.00
